Time;durP1;ratioP1;P1;durP2;ratioP2;P2;SDS_P1;SDS_P2;PMS_P1;PMS_P2;Temp;Humidity;BMP_temperature;BMP_pressure;BME280_temperature;BME280_humidity;BME280_pressure;Samples;Min_cycle;Max_cycle;Signal;HPM_P1;HPM_P2
2022/07/12 00:02:03;;;;;;;2.83;2.63;;;;;;;;;;5037666;28;20183;-83
2022/07/12 00:04:29;;;;;;;3.03;2.63;;;;;;;;;;5037873;28;20696;-83
2022/07/12 00:06:55;;;;;;;2.77;2.57;;;;;;;;;;5045794;28;20266;-82
2022/07/12 00:09:21;;;;;;;3.10;2.90;;;;;;;;;;5042650;28;20208;-85
2022/07/12 00:11:47;;;;;;;3.00;2.80;;;;;;;;;;5053722;28;20181;-83
2022/07/12 00:14:13;;;;;;;2.87;2.67;;;;;;;;;;5044036;28;20524;-83
2022/07/12 00:16:40;;;;;;;2.60;2.50;;;;;;;;;;5041158;28;20675;-82
2022/07/12 00:19:06;;;;;;;3.13;2.93;;;;;;;;;;5049192;28;20177;-84
2022/07/12 00:21:33;;;;;;;3.17;2.97;;;;;;;;;;5043588;28;20234;-83
2022/07/12 00:23:59;;;;;;;3.10;2.90;;;;;;;;;;5050999;28;20239;-85
2022/07/12 00:26:25;;;;;;;3.00;2.80;;;;;;;;;;5036815;28;20299;-82
2022/07/12 00:28:51;;;;;;;2.90;2.70;;;;;;;;;;5033989;28;20231;-83
2022/07/12 00:31:17;;;;;;;3.40;3.20;;;;;;;;;;5068955;28;20191;-85
2022/07/12 00:33:44;;;;;;;4.20;3.90;;;;;;;;;;5036022;28;20180;-83
2022/07/12 00:36:10;;;;;;;2.60;2.40;;;;;;;;;;5064936;28;20172;-84
2022/07/12 00:38:36;;;;;;;2.93;2.73;;;;;;;;;;5043503;28;20189;-82
2022/07/12 00:41:02;;;;;;;2.70;2.50;;;;;;;;;;5038509;28;20528;-85
2022/07/12 00:43:29;;;;;;;3.23;2.93;;;;;;;;;;5035180;28;20690;-83
2022/07/12 00:45:55;;;;;;;3.00;2.80;;;;;;;;;;5058931;28;20576;-82
2022/07/12 00:48:21;;;;;;;3.00;2.80;;;;;;;;;;5040316;28;20228;-82
2022/07/12 00:50:47;;;;;;;2.97;2.77;;;;;;;;;;5049843;28;20184;-84
2022/07/12 00:53:14;;;;;;;2.67;2.50;;;;;;;;;;5044745;28;20185;-83
2022/07/12 00:55:40;;;;;;;2.80;2.60;;;;;;;;;;5045134;28;20219;-83
2022/07/12 00:58:07;;;;;;;3.00;2.80;;;;;;;;;;5047364;28;20189;-83
2022/07/12 01:00:33;;;;;;;2.80;2.60;;;;;;;;;;5060295;28;20174;-83
2022/07/12 01:03:01;;;;;;;2.87;2.67;;;;;;;;;;5038634;28;20189;-83
2022/07/12 01:05:28;;;;;;;2.97;2.77;;;;;;;;;;5041372;28;20196;-84
2022/07/12 01:07:55;;;;;;;2.83;2.63;;;;;;;;;;5039113;28;20207;-83
2022/07/12 01:10:21;;;;;;;3.30;3.10;;;;;;;;;;5044226;28;20184;-83
2022/07/12 01:12:47;;;;;;;3.13;2.77;;;;;;;;;;5041846;28;20224;-83
2022/07/12 01:15:13;;;;;;;2.67;2.50;;;;;;;;;;5044090;28;20662;-84
2022/07/12 01:17:40;;;;;;;2.60;2.40;;;;;;;;;;5042513;28;20635;-86
2022/07/12 01:20:07;;;;;;;2.60;2.40;;;;;;;;;;5040884;28;20808;-82
2022/07/12 01:22:34;;;;;;;2.80;2.60;;;;;;;;;;5044284;28;20187;-86
2022/07/12 01:25:01;;;;;;;3.20;2.60;;;;;;;;;;5042657;28;20562;-82
2022/07/12 01:27:27;;;;;;;2.83;2.63;;;;;;;;;;5043128;28;20249;-82
2022/07/12 01:29:53;;;;;;;2.33;2.23;;;;;;;;;;5044416;28;20729;-85
2022/07/12 01:32:26;;;;;;;2.60;2.50;;;;;;;;;;5043929;28;20242;-83
2022/07/12 01:35:00;;;;;;;2.63;2.43;;;;;;;;;;5044192;28;20200;-84
2022/07/12 01:37:29;;;;;;;2.90;2.70;;;;;;;;;;5045447;28;20656;-82
2022/07/12 01:39:56;;;;;;;3.03;2.83;;;;;;;;;;5036500;28;20214;-84
2022/07/12 01:42:26;;;;;;;2.50;2.40;;;;;;;;;;5036856;28;20177;-83
2022/07/12 01:44:53;;;;;;;2.30;2.20;;;;;;;;;;5042802;28;20184;-83
2022/07/12 01:47:20;;;;;;;2.77;2.57;;;;;;;;;;5041497;28;20196;-82
2022/07/12 01:49:46;;;;;;;3.20;2.60;;;;;;;;;;5056479;28;20678;-83
2022/07/12 01:52:13;;;;;;;2.77;2.57;;;;;;;;;;5041193;28;20230;-82
2022/07/12 01:54:39;;;;;;;2.67;2.47;;;;;;;;;;5036177;28;20288;-83
2022/07/12 01:57:06;;;;;;;3.00;2.80;;;;;;;;;;5036392;28;20185;-83
2022/07/12 01:59:32;;;;;;;2.97;2.77;;;;;;;;;;5044261;28;20185;-82
2022/07/12 02:01:59;;;;;;;2.20;2.10;;;;;;;;;;5048097;28;20189;-82
2022/07/12 02:04:25;;;;;;;2.23;2.13;;;;;;;;;;5034731;28;20216;-82
2022/07/12 02:06:51;;;;;;;2.63;2.53;;;;;;;;;;5044239;28;20184;-82
2022/07/12 02:09:17;;;;;;;2.70;2.60;;;;;;;;;;5034592;28;20216;-83
2022/07/12 02:11:44;;;;;;;3.07;2.87;;;;;;;;;;5038182;28;20222;-83
2022/07/12 02:14:12;;;;;;;2.83;2.63;;;;;;;;;;5042838;28;20177;-82
2022/07/12 02:16:38;;;;;;;2.90;2.70;;;;;;;;;;5037916;28;20433;-84
2022/07/12 02:19:04;;;;;;;5.13;2.37;;;;;;;;;;5039936;28;20174;-82
2022/07/12 02:21:31;;;;;;;2.83;2.63;;;;;;;;;;5038241;28;20749;-83
2022/07/12 02:23:57;;;;;;;2.90;2.70;;;;;;;;;;5036029;28;20224;-82
2022/07/12 02:26:23;;;;;;;2.37;2.27;;;;;;;;;;5035388;28;20650;-83
2022/07/12 02:28:49;;;;;;;3.10;2.40;;;;;;;;;;5047240;28;20629;-82
2022/07/12 02:31:15;;;;;;;2.43;2.30;;;;;;;;;;5038425;28;20277;-85
2022/07/12 02:33:42;;;;;;;2.40;2.30;;;;;;;;;;5034469;28;20527;-82
2022/07/12 02:36:08;;;;;;;2.77;2.57;;;;;;;;;;5055749;28;20185;-85
2022/07/12 02:38:35;;;;;;;2.53;2.33;;;;;;;;;;5033361;28;20547;-85
2022/07/12 02:41:01;;;;;;;2.67;2.47;;;;;;;;;;5058425;28;20508;-83
2022/07/12 02:43:28;;;;;;;2.87;2.67;;;;;;;;;;5036642;28;20548;-82
2022/07/12 02:45:58;;;;;;;2.90;2.70;;;;;;;;;;5041946;28;20176;-82
2022/07/12 02:48:30;;;;;;;3.10;2.90;;;;;;;;;;5033493;28;20199;-83
2022/07/12 02:50:56;;;;;;;2.77;2.57;;;;;;;;;;5038682;28;20179;-83
2022/07/12 02:53:22;;;;;;;2.53;2.43;;;;;;;;;;5036585;28;20183;-83
2022/07/12 02:55:48;;;;;;;3.27;2.97;;;;;;;;;;5062261;28;20188;-83
2022/07/12 02:58:15;;;;;;;2.67;2.47;;;;;;;;;;5040970;28;20187;-83
2022/07/12 03:00:41;;;;;;;2.33;2.23;;;;;;;;;;5043394;28;20185;-82
2022/07/12 03:03:08;;;;;;;4.37;4.13;;;;;;;;;;5038854;28;20181;-82
2022/07/12 03:05:35;;;;;;;3.40;2.90;;;;;;;;;;5050178;28;20184;-84
2022/07/12 03:08:01;;;;;;;2.13;2.03;;;;;;;;;;5061812;28;20666;-82
2022/07/12 03:10:28;;;;;;;2.43;2.33;;;;;;;;;;5040048;28;20181;-84
2022/07/12 03:12:54;;;;;;;3.33;3.13;;;;;;;;;;5038058;28;20216;-84
2022/07/12 03:15:20;;;;;;;2.20;2.10;;;;;;;;;;5044504;28;20665;-84
2022/07/12 03:17:46;;;;;;;2.70;2.50;;;;;;;;;;5035528;28;20627;-82
2022/07/12 03:20:19;;;;;;;2.93;2.73;;;;;;;;;;5031668;28;20651;-84
2022/07/12 03:22:48;;;;;;;2.63;2.43;;;;;;;;;;5040072;28;20679;-85
2022/07/12 03:25:14;;;;;;;2.67;2.47;;;;;;;;;;5032995;28;20220;-82
2022/07/12 03:27:41;;;;;;;2.63;2.43;;;;;;;;;;5044828;28;20209;-84
2022/07/12 03:30:08;;;;;;;2.90;2.70;;;;;;;;;;5039042;28;20426;-83
2022/07/12 03:32:34;;;;;;;2.63;2.33;;;;;;;;;;5040173;28;20212;-82
2022/07/12 03:35:00;;;;;;;3.27;2.47;;;;;;;;;;5033760;28;20662;-82
2022/07/12 03:37:26;;;;;;;2.47;2.37;;;;;;;;;;5070824;28;20160;-83
2022/07/12 03:39:56;;;;;;;2.70;2.50;;;;;;;;;;5040723;28;20643;-82
2022/07/12 03:42:22;;;;;;;2.40;2.30;;;;;;;;;;5046361;28;20584;-84
2022/07/12 03:44:48;;;;;;;2.53;2.40;;;;;;;;;;5044919;28;20203;-83
2022/07/12 03:47:14;;;;;;;2.60;2.40;;;;;;;;;;5036857;28;20623;-83
2022/07/12 03:49:41;;;;;;;3.10;2.93;;;;;;;;;;5037824;28;20181;-85
2022/07/12 03:52:07;;;;;;;2.70;2.50;;;;;;;;;;5035062;28;20179;-84
2022/07/12 03:54:33;;;;;;;2.87;2.67;;;;;;;;;;5039996;28;20225;-84
2022/07/12 03:57:14;;;;;;;2.37;2.17;;;;;;;;;;5059355;28;20185;-85
2022/07/12 03:59:44;;;;;;;3.10;2.40;;;;;;;;;;5041729;28;20554;-83
2022/07/12 04:02:11;;;;;;;6.03;5.63;;;;;;;;;;5034737;28;20196;-84
2022/07/12 04:04:37;;;;;;;2.70;2.50;;;;;;;;;;5043542;28;20173;-83
2022/07/12 04:07:04;;;;;;;2.63;2.43;;;;;;;;;;5064362;28;20177;-82
2022/07/12 04:09:30;;;;;;;2.17;2.07;;;;;;;;;;5047470;28;20212;-83
2022/07/12 04:11:56;;;;;;;2.40;2.20;;;;;;;;;;5045612;28;20533;-84
2022/07/12 04:14:22;;;;;;;2.57;2.37;;;;;;;;;;5035936;28;20172;-83
2022/07/12 04:16:48;;;;;;;2.10;1.93;;;;;;;;;;5035556;28;20193;-83
2022/07/12 04:19:14;;;;;;;2.07;1.97;;;;;;;;;;5041779;28;20204;-84
2022/07/12 04:21:40;;;;;;;2.60;2.27;;;;;;;;;;5049575;28;20651;-84
2022/07/12 04:24:07;;;;;;;1.90;1.80;;;;;;;;;;5049688;28;20224;-83
2022/07/12 04:26:33;;;;;;;2.20;2.10;;;;;;;;;;5048996;28;20211;-82
2022/07/12 04:28:59;;;;;;;2.20;2.10;;;;;;;;;;5043476;28;20256;-84
2022/07/12 04:31:25;;;;;;;2.23;2.13;;;;;;;;;;5046254;28;20195;-83
2022/07/12 04:33:51;;;;;;;2.10;2.00;;;;;;;;;;5048119;28;20187;-82
2022/07/12 04:36:17;;;;;;;2.10;2.00;;;;;;;;;;5042881;28;20174;-82
2022/07/12 04:38:44;;;;;;;2.47;2.20;;;;;;;;;;5037929;28;20191;-84
2022/07/12 04:41:10;;;;;;;2.60;2.40;;;;;;;;;;5042614;28;20180;-86
2022/07/12 04:43:36;;;;;;;1.90;1.80;;;;;;;;;;5043728;28;20276;-82
2022/07/12 04:46:11;;;;;;;2.27;2.17;;;;;;;;;;5041719;28;20176;-82
2022/07/12 04:48:38;;;;;;;2.10;2.00;;;;;;;;;;5043683;28;20539;-83
2022/07/12 04:51:04;;;;;;;2.03;1.93;;;;;;;;;;5039783;28;20172;-81
2022/07/12 04:53:30;;;;;;;1.97;1.87;;;;;;;;;;5038054;28;20271;-84
2022/07/12 04:55:57;;;;;;;2.37;2.17;;;;;;;;;;5042783;28;21440;-83
2022/07/12 04:58:24;;;;;;;2.43;2.33;;;;;;;;;;5041618;28;20188;-82
2022/07/12 05:00:50;;;;;;;6.50;6.13;;;;;;;;;;5055099;28;20211;-81
2022/07/12 05:03:16;;;;;;;2.10;2.00;;;;;;;;;;5037237;28;20422;-81
2022/07/12 05:05:42;;;;;;;2.60;2.40;;;;;;;;;;5043720;28;20219;-82
2022/07/12 05:08:08;;;;;;;2.30;2.20;;;;;;;;;;5039702;28;20292;-82
2022/07/12 05:10:35;;;;;;;2.30;2.20;;;;;;;;;;5041686;28;20181;-82
2022/07/12 05:13:01;;;;;;;2.40;2.30;;;;;;;;;;5044396;28;20593;-84
2022/07/12 05:15:27;;;;;;;1.97;1.87;;;;;;;;;;5040167;28;20192;-84
2022/07/12 05:17:54;;;;;;;2.93;2.73;;;;;;;;;;5038661;28;20184;-81
2022/07/12 05:20:20;;;;;;;2.83;2.63;;;;;;;;;;5039998;28;20211;-81
2022/07/12 05:22:46;;;;;;;2.80;2.30;;;;;;;;;;5041665;28;20458;-83
2022/07/12 05:25:12;;;;;;;2.67;2.50;;;;;;;;;;5040911;28;20221;-81
2022/07/12 05:27:38;;;;;;;3.03;2.83;;;;;;;;;;5043006;28;20208;-82
2022/07/12 05:30:05;;;;;;;3.30;2.77;;;;;;;;;;5043710;28;20173;-82
2022/07/12 05:32:38;;;;;;;3.07;2.77;;;;;;;;;;5042140;28;20197;-82
2022/07/12 05:35:05;;;;;;;3.17;2.90;;;;;;;;;;5035864;28;20639;-82
2022/07/12 05:37:31;;;;;;;2.90;2.67;;;;;;;;;;5049836;28;20176;-83
2022/07/12 05:39:57;;;;;;;3.13;2.83;;;;;;;;;;5037102;28;20188;-83
2022/07/12 05:42:23;;;;;;;3.23;2.93;;;;;;;;;;5034186;28;20189;-83
2022/07/12 05:44:49;;;;;;;3.23;2.97;;;;;;;;;;5036975;28;20180;-83
2022/07/12 05:47:15;;;;;;;3.63;3.30;;;;;;;;;;5039144;28;20631;-85
2022/07/12 05:49:41;;;;;;;4.03;3.73;;;;;;;;;;5032027;28;20208;-83
2022/07/12 05:54:52;;;;;;;4.40;4.00;;;;;;;;;;5057852;28;20237;-82
2022/07/12 05:57:19;;;;;;;4.13;3.73;;;;;;;;;;5039561;28;20661;-83
2022/07/12 05:59:45;;;;;;;3.97;3.67;;;;;;;;;;5038305;28;20211;-83
2022/07/12 06:02:11;;;;;;;4.27;3.97;;;;;;;;;;5037880;28;20184;-83
2022/07/12 06:04:37;;;;;;;4.10;3.77;;;;;;;;;;5031687;28;20966;-82
2022/07/12 06:07:04;;;;;;;4.57;4.17;;;;;;;;;;5057629;28;20771;-83
2022/07/12 06:09:30;;;;;;;4.30;3.90;;;;;;;;;;5031600;28;20721;-86
2022/07/12 06:11:56;;;;;;;4.63;4.23;;;;;;;;;;5037214;28;20627;-83
2022/07/12 06:14:22;;;;;;;4.53;4.13;;;;;;;;;;5044577;28;20699;-83
2022/07/12 06:16:48;;;;;;;6.03;4.97;;;;;;;;;;5063212;28;20668;-85
2022/07/12 06:19:14;;;;;;;5.10;4.60;;;;;;;;;;5039355;28;20256;-83
2022/07/12 06:21:40;;;;;;;8.57;7.77;;;;;;;;;;5032030;28;20196;-86
2022/07/12 06:24:19;;;;;;;9.67;8.57;;;;;;;;;;5042785;28;20689;-86
2022/07/12 06:26:45;;;;;;;8.40;7.63;;;;;;;;;;5068845;28;20204;-86
2022/07/12 06:29:11;;;;;;;10.77;8.47;;;;;;;;;;5049343;28;20201;-85
2022/07/12 06:31:37;;;;;;;10.50;9.27;;;;;;;;;;5041712;28;20180;-84
2022/07/12 06:34:04;;;;;;;11.93;10.73;;;;;;;;;;5034146;28;20268;-86
2022/07/12 06:36:30;;;;;;;11.73;10.53;;;;;;;;;;5042891;28;20231;-85
2022/07/12 06:38:56;;;;;;;12.30;10.30;;;;;;;;;;5045280;28;20176;-85
2022/07/12 06:41:22;;;;;;;12.37;10.90;;;;;;;;;;5043632;28;20172;-85
2022/07/12 06:43:48;;;;;;;11.23;10.13;;;;;;;;;;5046603;28;20231;-85
2022/07/12 06:46:14;;;;;;;17.03;10.77;;;;;;;;;;5038802;28;20181;-87
2022/07/12 06:48:40;;;;;;;10.47;9.50;;;;;;;;;;5032336;28;20188;-86
2022/07/12 06:51:06;;;;;;;10.23;9.43;;;;;;;;;;5032188;28;20177;-87
2022/07/12 06:53:32;;;;;;;10.43;9.53;;;;;;;;;;5033319;28;20534;-87
2022/07/12 06:55:58;;;;;;;10.93;9.87;;;;;;;;;;5039230;28;20176;-86
2022/07/12 06:58:25;;;;;;;11.90;10.63;;;;;;;;;;5042194;28;20230;-87
2022/07/12 07:00:51;;;;;;;12.13;10.83;;;;;;;;;;5047581;28;20203;-87
2022/07/12 07:03:17;;;;;;;11.33;10.23;;;;;;;;;;5042137;28;20263;-86
2022/07/12 07:05:43;;;;;;;10.90;9.97;;;;;;;;;;5050216;28;20184;-86
2022/07/12 07:08:09;;;;;;;11.63;10.60;;;;;;;;;;5058315;28;20193;-86
2022/07/12 07:10:35;;;;;;;13.17;12.00;;;;;;;;;;5043488;28;20176;-86
2022/07/12 07:13:01;;;;;;;10.70;9.73;;;;;;;;;;5047679;28;20176;-85
2022/07/12 07:15:27;;;;;;;11.53;10.43;;;;;;;;;;5049067;28;20172;-86
2022/07/12 07:17:53;;;;;;;12.07;10.80;;;;;;;;;;5036015;28;20431;-86
2022/07/12 07:20:19;;;;;;;11.03;9.93;;;;;;;;;;5039310;28;20211;-86
2022/07/12 07:22:45;;;;;;;12.17;10.97;;;;;;;;;;5049342;28;20568;-87
2022/07/12 07:25:12;;;;;;;11.00;9.90;;;;;;;;;;5056296;28;20626;-85
2022/07/12 07:27:38;;;;;;;10.87;9.77;;;;;;;;;;5045669;28;20326;-86
2022/07/12 07:32:50;;;;;;;9.00;8.20;;;;;;;;;;5065474;28;20259;-85
2022/07/12 07:35:16;;;;;;;9.57;8.67;;;;;;;;;;5061313;28;20646;-85
2022/07/12 07:37:42;;;;;;;9.73;8.73;;;;;;;;;;5036898;28;20670;-85
2022/07/12 07:40:09;;;;;;;8.50;7.73;;;;;;;;;;5045395;28;20616;-84
2022/07/12 07:42:35;;;;;;;8.40;7.60;;;;;;;;;;5045495;28;20330;-85
2022/07/12 07:45:03;;;;;;;8.80;7.90;;;;;;;;;;5044372;28;20678;-84
2022/07/12 07:47:29;;;;;;;8.00;7.30;;;;;;;;;;5066297;28;20271;-85
2022/07/12 07:49:56;;;;;;;8.40;7.53;;;;;;;;;;5041374;28;20654;-85
2022/07/12 07:52:22;;;;;;;8.77;8.03;;;;;;;;;;5045512;28;20178;-84
2022/07/12 07:54:48;;;;;;;8.02;7.32;;;;;;;;;;5034318;28;20515;-86
2022/07/12 07:57:14;;;;;;;7.57;6.87;;;;;;;;;;5042092;28;20616;-86
2022/07/12 07:59:40;;;;;;;8.30;7.43;;;;;;;;;;5042717;28;20186;-86
2022/07/12 08:02:06;;;;;;;9.63;8.27;;;;;;;;;;5041040;28;20231;-85
2022/07/12 08:04:32;;;;;;;8.67;7.87;;;;;;;;;;5074201;28;20190;-85
2022/07/12 08:06:58;;;;;;;8.93;8.03;;;;;;;;;;5039811;28;20183;-84
2022/07/12 08:09:25;;;;;;;8.97;7.17;;;;;;;;;;5051729;28;20193;-86
2022/07/12 08:11:51;;;;;;;10.60;8.97;;;;;;;;;;5086669;28;20172;-85
2022/07/12 08:14:17;;;;;;;6.97;6.37;;;;;;;;;;5067362;28;20670;-85
2022/07/12 08:16:43;;;;;;;9.53;8.23;;;;;;;;;;5041104;28;20181;-85
2022/07/12 08:19:09;;;;;;;9.07;8.17;;;;;;;;;;5043841;28;20180;-85
2022/07/12 08:21:35;;;;;;;8.07;7.23;;;;;;;;;;5038325;28;20185;-86
2022/07/12 08:24:01;;;;;;;9.57;7.93;;;;;;;;;;5050185;28;20179;-85
2022/07/12 08:26:27;;;;;;;7.87;7.07;;;;;;;;;;5042291;28;20182;-84
2022/07/12 08:28:53;;;;;;;8.13;7.43;;;;;;;;;;5043520;28;20238;-85
2022/07/12 08:31:20;;;;;;;9.00;7.70;;;;;;;;;;5041375;28;20233;-85
2022/07/12 08:33:46;;;;;;;8.70;7.27;;;;;;;;;;5044573;28;20184;-85
2022/07/12 08:36:12;;;;;;;8.43;7.60;;;;;;;;;;5049973;28;20187;-85
2022/07/12 08:38:38;;;;;;;9.23;8.13;;;;;;;;;;5058260;28;20188;-85
2022/07/12 08:41:05;;;;;;;8.60;7.80;;;;;;;;;;5056125;28;20184;-85
2022/07/12 08:43:34;;;;;;;7.03;6.27;;;;;;;;;;5039200;28;20188;-86
2022/07/12 08:46:04;;;;;;;6.97;6.23;;;;;;;;;;5053120;28;20267;-85
2022/07/12 08:48:30;;;;;;;8.33;5.40;;;;;;;;;;5052463;28;20202;-86
2022/07/12 08:51:01;;;;;;;5.40;5.00;;;;;;;;;;5044649;28;20229;-87
2022/07/12 08:53:27;;;;;;;5.77;5.13;;;;;;;;;;5039448;28;20242;-86
2022/07/12 08:55:53;;;;;;;5.40;4.90;;;;;;;;;;5033603;28;20188;-86
2022/07/12 08:58:19;;;;;;;5.60;5.10;;;;;;;;;;5034575;28;20181;-86
2022/07/12 09:00:45;;;;;;;5.33;4.53;;;;;;;;;;5052230;28;20184;-85
2022/07/12 09:03:13;;;;;;;4.50;4.13;;;;;;;;;;5043070;28;20594;-86
2022/07/12 09:05:47;;;;;;;5.73;5.20;;;;;;;;;;5039558;28;20180;-87
2022/07/12 09:08:13;;;;;;;7.00;5.47;;;;;;;;;;5033637;28;20200;-87
2022/07/12 09:10:53;;;;;;;7.90;5.23;;;;;;;;;;5044483;28;20174;-87
2022/07/12 09:13:19;;;;;;;5.60;5.10;;;;;;;;;;5038349;28;20184;-86
2022/07/12 09:15:48;;;;;;;6.20;5.60;;;;;;;;;;5048243;28;20182;-86
2022/07/12 09:18:22;;;;;;;8.27;5.20;;;;;;;;;;5035473;28;20305;-87
2022/07/12 09:20:55;;;;;;;5.40;5.00;;;;;;;;;;5045681;28;20206;-86
2022/07/12 09:23:21;;;;;;;8.30;5.77;;;;;;;;;;5062310;28;20192;-87
2022/07/12 09:25:51;;;;;;;7.17;5.73;;;;;;;;;;5041047;28;20714;-84
2022/07/12 09:28:17;;;;;;;5.57;5.07;;;;;;;;;;5034667;28;20550;-83
2022/07/12 09:30:51;;;;;;;5.70;5.20;;;;;;;;;;5037348;28;20492;-84
2022/07/12 09:36:06;;;;;;;9.20;5.77;;;;;;;;;;5052593;28;20180;-85
2022/07/12 09:38:53;;;;;;;5.70;5.20;;;;;;;;;;5041511;28;20238;-84
2022/07/12 09:41:20;;;;;;;6.60;5.20;;;;;;;;;;5039711;28;20181;-84
2022/07/12 09:43:47;;;;;;;5.67;5.07;;;;;;;;;;5036391;28;20673;-84
2022/07/12 09:46:14;;;;;;;5.27;4.70;;;;;;;;;;5060034;28;20279;-83
2022/07/12 09:48:41;;;;;;;5.17;4.77;;;;;;;;;;5036044;28;20200;-84
2022/07/12 09:51:08;;;;;;;5.30;4.90;;;;;;;;;;5041384;28;20564;-84
2022/07/12 09:53:45;;;;;;;4.97;4.57;;;;;;;;;;5046270;28;20643;-84
2022/07/12 09:56:13;;;;;;;5.20;4.70;;;;;;;;;;5041149;28;20184;-83
2022/07/12 09:58:42;;;;;;;4.80;4.03;;;;;;;;;;5041862;28;20180;-84
2022/07/12 10:01:08;;;;;;;5.20;4.80;;;;;;;;;;5045697;28;20659;-85
2022/07/12 10:03:36;;;;;;;5.33;4.90;;;;;;;;;;5060179;28;20176;-84
2022/07/12 10:06:05;;;;;;;6.03;4.37;;;;;;;;;;5047751;28;20615;-83
2022/07/12 10:08:31;;;;;;;5.00;4.60;;;;;;;;;;5031662;28;20617;-84
2022/07/12 10:10:58;;;;;;;4.20;3.80;;;;;;;;;;5036238;28;20188;-84
2022/07/12 10:13:24;;;;;;;4.03;3.77;;;;;;;;;;5049322;28;20196;-83
2022/07/12 10:15:51;;;;;;;4.20;3.87;;;;;;;;;;5048097;28;20184;-85
2022/07/12 10:18:21;;;;;;;3.50;3.20;;;;;;;;;;5049660;28;20718;-85
2022/07/12 10:20:48;;;;;;;3.90;3.60;;;;;;;;;;5034746;28;20692;-86
2022/07/12 10:23:20;;;;;;;4.33;3.93;;;;;;;;;;5047481;28;20195;-85
2022/07/12 10:25:48;;;;;;;4.00;3.67;;;;;;;;;;5052792;28;20595;-85
2022/07/12 10:28:14;;;;;;;3.90;3.60;;;;;;;;;;5034117;28;20221;-83
2022/07/12 10:30:45;;;;;;;6.30;3.73;;;;;;;;;;5041015;28;20564;-84
2022/07/12 10:33:19;;;;;;;4.57;4.00;;;;;;;;;;5049208;28;20176;-85
2022/07/12 10:36:15;;;;;;;4.83;3.77;;;;;;;;;;5040912;28;20661;-85
2022/07/12 10:38:41;;;;;;;3.40;3.20;;;;;;;;;;5025052;28;20196;-83
2022/07/12 10:41:18;;;;;;;3.23;2.93;;;;;;;;;;5039820;28;20195;-84
2022/07/12 10:46:57;;;;;;;2.70;2.50;;;;;;;;;;5041537;28;20191;-83
2022/07/12 10:49:25;;;;;;;3.10;2.90;;;;;;;;;;5059620;28;20545;-84
2022/07/12 10:52:27;;;;;;;4.77;3.00;;;;;;;;;;5041967;28;20176;-83
2022/07/12 10:54:56;;;;;;;3.87;3.37;;;;;;;;;;4956897;28;20183;-86
2022/07/12 10:57:41;;;;;;;3.57;3.27;;;;;;;;;;5024428;28;20245;-84
2022/07/12 11:00:09;;;;;;;4.20;3.40;;;;;;;;;;5038582;28;20170;-85
2022/07/12 11:02:35;;;;;;;3.53;3.23;;;;;;;;;;5080311;28;20218;-84
2022/07/12 11:05:01;;;;;;;4.83;3.03;;;;;;;;;;5046407;28;20527;-85
2022/07/12 11:07:28;;;;;;;4.63;2.80;;;;;;;;;;5051704;28;20231;-85
2022/07/12 11:09:55;;;;;;;3.80;3.50;;;;;;;;;;5049854;28;20200;-82
2022/07/12 11:12:21;;;;;;;3.20;2.90;;;;;;;;;;5049740;28;20173;-84
2022/07/12 11:14:47;;;;;;;3.23;2.97;;;;;;;;;;5051059;28;20181;-85
2022/07/12 11:17:14;;;;;;;3.60;3.30;;;;;;;;;;5052341;28;20684;-85
2022/07/12 11:19:40;;;;;;;2.97;2.77;;;;;;;;;;5050399;28;20220;-85
2022/07/12 11:22:06;;;;;;;3.00;2.70;;;;;;;;;;5053365;28;20654;-86
2022/07/12 11:24:34;;;;;;;3.13;2.80;;;;;;;;;;5050793;28;20207;-84
2022/07/12 11:27:01;;;;;;;3.03;2.73;;;;;;;;;;5046147;28;20189;-84
2022/07/12 11:29:27;;;;;;;3.20;2.97;;;;;;;;;;5048612;28;20223;-85
2022/07/12 11:32:00;;;;;;;3.40;3.20;;;;;;;;;;5056228;28;20175;-85
2022/07/12 11:34:27;;;;;;;3.73;3.40;;;;;;;;;;5056401;28;20181;-85
2022/07/12 11:36:57;;;;;;;4.43;3.80;;;;;;;;;;5067703;28;20539;-84
2022/07/12 11:39:50;;;;;;;4.10;3.70;;;;;;;;;;5045786;28;20184;-84
2022/07/12 11:42:17;;;;;;;4.47;3.73;;;;;;;;;;5047953;28;20250;-84
2022/07/12 11:44:43;;;;;;;4.63;3.93;;;;;;;;;;5054402;28;20185;-84
2022/07/12 11:47:10;;;;;;;4.30;3.63;;;;;;;;;;5045103;28;20194;-85
2022/07/12 11:49:36;;;;;;;4.10;3.70;;;;;;;;;;5050122;28;20235;-86
2022/07/12 11:52:05;;;;;;;4.03;3.20;;;;;;;;;;5048230;28;20178;-85
2022/07/12 11:54:31;;;;;;;3.77;3.40;;;;;;;;;;5051371;28;20184;-85
2022/07/12 11:57:07;;;;;;;4.13;3.80;;;;;;;;;;5046217;28;20187;-83
2022/07/12 11:59:33;;;;;;;6.93;6.33;;;;;;;;;;5038733;28;20863;-86
2022/07/12 12:02:11;;;;;;;4.80;4.33;;;;;;;;;;5041372;28;20186;-86
2022/07/12 12:04:48;;;;;;;4.70;4.30;;;;;;;;;;5045447;28;20270;-88
2022/07/12 12:07:16;;;;;;;4.67;4.23;;;;;;;;;;5041917;28;20199;-90
2022/07/12 12:10:01;;;;;;;4.93;4.07;;;;;;;;;;5044654;28;20707;-90
2022/07/12 12:12:47;;;;;;;5.03;4.53;;;;;;;;;;5043114;28;20604;-90
2022/07/12 12:15:16;;;;;;;4.37;4.03;;;;;;;;;;5040543;28;20178;-90
2022/07/12 12:17:44;;;;;;;5.00;4.50;;;;;;;;;;5035743;28;20177;-89
2022/07/12 12:20:21;;;;;;;5.73;5.33;;;;;;;;;;5048329;28;20208;-89
2022/07/12 12:22:47;;;;;;;5.30;4.73;;;;;;;;;;5044655;28;20179;-88
2022/07/12 12:25:15;;;;;;;4.63;4.10;;;;;;;;;;5039300;28;20319;-87
2022/07/12 12:27:49;;;;;;;5.50;4.13;;;;;;;;;;5034231;28;20592;-85
2022/07/12 12:30:16;;;;;;;4.13;3.83;;;;;;;;;;5040670;28;20182;-87
2022/07/12 12:32:55;;;;;;;6.23;3.67;;;;;;;;;;5031286;28;20195;-87
2022/07/12 12:35:23;;;;;;;4.10;3.80;;;;;;;;;;5047883;28;20183;-88
2022/07/12 12:37:59;;;;;;;4.40;3.80;;;;;;;;;;5047419;28;20213;-89
2022/07/12 12:40:26;;;;;;;3.90;3.50;;;;;;;;;;5029891;28;20180;-89
2022/07/12 12:42:52;;;;;;;4.40;4.00;;;;;;;;;;5034213;28;20258;-88
2022/07/12 12:45:23;;;;;;;4.40;4.10;;;;;;;;;;5041904;28;20693;-84
2022/07/12 12:47:56;;;;;;;4.17;3.77;;;;;;;;;;5021062;28;20516;-84
2022/07/12 12:50:39;;;;;;;5.53;4.30;;;;;;;;;;5046127;28;20180;-85
2022/07/12 12:53:09;;;;;;;4.50;3.97;;;;;;;;;;5035265;28;20235;-84
2022/07/12 12:55:35;;;;;;;4.87;4.37;;;;;;;;;;5029043;28;20195;-86
2022/07/12 12:58:04;;;;;;;4.47;4.18;;;;;;;;;;5042096;28;20624;-87
2022/07/12 13:00:30;;;;;;;5.03;4.53;;;;;;;;;;5018700;28;20272;-87
2022/07/12 13:03:00;;;;;;;4.30;3.90;;;;;;;;;;5042784;28;20425;-88
2022/07/12 13:05:30;;;;;;;3.95;3.65;;;;;;;;;;5028179;28;20181;-88
2022/07/12 13:07:56;;;;;;;3.90;3.58;;;;;;;;;;5043007;28;20181;-87
2022/07/12 13:10:25;;;;;;;4.25;3.85;;;;;;;;;;5042112;28;20513;-88
2022/07/12 13:12:52;;;;;;;4.25;3.50;;;;;;;;;;5029014;28;20174;-88
2022/07/12 13:15:18;;;;;;;3.93;3.63;;;;;;;;;;5026637;28;20662;-87
2022/07/12 13:17:45;;;;;;;4.40;3.92;;;;;;;;;;5043221;28;20204;-87
2022/07/12 13:20:12;;;;;;;4.82;3.65;;;;;;;;;;5025786;28;20202;-87
2022/07/12 13:22:39;;;;;;;3.70;3.50;;;;;;;;;;5028622;28;20264;-87
2022/07/12 13:25:05;;;;;;;3.50;3.20;;;;;;;;;;5046899;28;20224;-86
2022/07/12 13:27:31;;;;;;;4.35;3.92;;;;;;;;;;5054454;28;20626;-86
2022/07/12 13:29:57;;;;;;;3.05;2.85;;;;;;;;;;5057821;28;20203;-85
2022/07/12 13:32:24;;;;;;;5.05;3.88;;;;;;;;;;5042660;28;20182;-85
2022/07/12 13:34:50;;;;;;;4.03;3.63;;;;;;;;;;5045445;28;20176;-83
2022/07/12 13:37:17;;;;;;;3.50;3.17;;;;;;;;;;5049641;28;20323;-84
2022/07/12 13:42:27;;;;;;;3.72;3.30;;;;;;;;;;5064412;28;20546;-84
2022/07/12 13:44:54;;;;;;;4.33;3.80;;;;;;;;;;5046565;28;20176;-84
2022/07/12 13:47:21;;;;;;;4.63;3.40;;;;;;;;;;5037047;28;20181;-83
2022/07/12 13:49:47;;;;;;;3.50;3.20;;;;;;;;;;5045252;28;20207;-83
2022/07/12 13:52:15;;;;;;;3.88;3.58;;;;;;;;;;5045064;28;20524;-84
2022/07/12 13:54:43;;;;;;;4.28;3.10;;;;;;;;;;5044855;28;20259;-84
2022/07/12 13:57:12;;;;;;;5.23;4.63;;;;;;;;;;5041534;28;20531;-87
2022/07/12 13:59:41;;;;;;;7.40;4.93;;;;;;;;;;5046072;28;20177;-90
2022/07/12 14:02:07;;;;;;;5.10;4.03;;;;;;;;;;5039943;28;20185;-90
2022/07/12 14:04:33;;;;;;;3.43;3.13;;;;;;;;;;5044580;28;20452;-87
2022/07/12 14:07:00;;;;;;;3.67;3.37;;;;;;;;;;5048862;28;20177;-89
2022/07/12 14:09:26;;;;;;;3.30;3.10;;;;;;;;;;5041491;28;20203;-86
2022/07/12 14:11:53;;;;;;;3.53;3.23;;;;;;;;;;5043103;28;20264;-89
2022/07/12 14:15:13;;;;;;;4.23;3.83;;;;;;;;;;5032412;28;20623;-88
2022/07/12 14:17:05;;;;;;;3.37;3.07;;;;;;;;;;5062028;28;20639;-90
2022/07/12 14:19:32;;;;;;;3.97;3.33;;;;;;;;;;5045803;28;20209;-89
2022/07/12 14:21:58;;;;;;;4.13;3.10;;;;;;;;;;5043166;28;20200;-87
2022/07/12 14:24:25;;;;;;;6.57;3.63;;;;;;;;;;5040720;28;20180;-88
2022/07/12 14:26:51;;;;;;;3.47;3.17;;;;;;;;;;5034135;28;20583;-88
2022/07/12 14:29:17;;;;;;;4.60;4.20;;;;;;;;;;5037265;28;20259;-91
2022/07/12 14:31:43;;;;;;;4.27;3.80;;;;;;;;;;5027005;28;20268;-90
2022/07/12 14:34:09;;;;;;;4.07;3.23;;;;;;;;;;5028261;28;20174;-88
2022/07/12 14:36:35;;;;;;;3.80;3.50;;;;;;;;;;5049520;28;20185;-89
2022/07/12 14:39:01;;;;;;;3.53;3.27;;;;;;;;;;5025793;28;20557;-90
2022/07/12 14:41:27;;;;;;;3.70;3.30;;;;;;;;;;5029468;28;20185;-89
2022/07/12 14:43:54;;;;;;;4.07;3.60;;;;;;;;;;5040942;28;20379;-88
2022/07/12 14:46:20;;;;;;;3.53;3.17;;;;;;;;;;5026155;28;20180;-88
2022/07/12 14:48:46;;;;;;;5.53;3.50;;;;;;;;;;5028598;28;20198;-88
2022/07/12 14:51:12;;;;;;;3.73;3.30;;;;;;;;;;5031508;28;20173;-89
2022/07/12 14:53:38;;;;;;;4.30;3.33;;;;;;;;;;5031380;28;20178;-88
2022/07/12 14:56:05;;;;;;;3.67;3.25;;;;;;;;;;5031588;28;20188;-89
2022/07/12 14:58:31;;;;;;;3.58;3.20;;;;;;;;;;5034686;28;20182;-89